Terminal Aerodrome Forecast
Issued by NWS Cleveland, OH

Home | Current Version | Previous Version | Text Only | Print | Product List | Glossary Off
Versions: 1 2 3 4 5 6 7 8 9 10 11 12 13 14 15 16 17 18 19 20 21 22 23

000
FTUS41 KCLE 161700
TAFYNG
TAF
KYNG 161736Z 1618/1718 17009KT 6SM -RA BR OVC006
      TEMPO 1618/1621 2SM -RA BR OVC010
     FM162100 20010KT 4SM BR VCSH OVC012
     FM170300 24011KT 6SM BR OVC008
     FM171300 25012G25KT P6SM OVC012=

USA.gov is the U.S. government's official web portal to all federal, state and local government web resources and services.